CheckWX is a tool to help pilots better visualize weather data.  It is not intended as a substitute for an official pre-flight weather briefing.

08:24:00 UTC

OJAI TAF
Queen Alia International Airport
Amman, Jordan
TAF OJAI 190450Z 1906/2012 26008KT 6000 NSC BECMG 1910/1912 04008KT BECMG 1918/1920 VRB02KT 7000 NSC

Mar-19@
06:00 UTC

Mar-19 @ 06:00 UTC

Mar-19@
10:00 UTC

Mar-19 @ 10:00 UTC

TAF OJAI 190450Z 1906/2012 26008KT 6000 NSC
Wind
  • 260° at 8 KTS
Cloud Levels
  • No significant clouds

Mar-19@
10:00 UTC

Mar-19 @ 10:00 UTC

Mar-19@
18:00 UTC

Mar-19 @ 18:00 UTC

BECMG 1910/1912 04008KT

Becoming

Becoming Conditions expected by Tue, Mar 19, 2019 @ 12:00 UTC

Wind
  • 040° at 8 KTS
Cloud Levels
  • No significant clouds

Mar-19@
18:00 UTC

Mar-19 @ 18:00 UTC

Mar-20@
12:00 UTC

Mar-20 @ 12:00 UTC

BECMG 1918/1920 VRB02KT 7000 NSC

Becoming

Becoming Conditions expected by Tue, Mar 19, 2019 @ 20:00 UTC

Wind
  • Variable at 2 KTS
Cloud Levels
  • No significant clouds